createdAt,value
2018-11-25T00:01:44.536Z,101429.11
2018-11-25T00:04:21.739Z,101425.57
2018-11-25T00:06:59.594Z,101427.26
2018-11-25T00:09:38.195Z,101428.42
2018-11-25T00:12:17.616Z,101429.27
2018-11-25T00:14:54.702Z,101424.84
2018-11-25T00:17:34.392Z,101420.37
2018-11-25T00:20:17.540Z,101411.64
2018-11-25T00:22:54.647Z,101419.00
2018-11-25T00:25:31.883Z,101425.48
2018-11-25T00:28:08.934Z,101424.13
2018-11-25T00:30:45.572Z,101422.38
2018-11-25T00:33:22.966Z,101419.29
2018-11-25T00:36:00.378Z,101414.52
2018-11-25T00:38:37.897Z,101410.17
2018-11-25T00:41:16.753Z,101406.74
2018-11-25T00:43:54.433Z,101403.20
2018-11-25T00:46:32.228Z,101395.42
2018-11-25T00:49:12.765Z,101400.16
2018-11-25T00:51:48.222Z,101397.56
2018-11-25T00:54:27.730Z,101394.61
2018-11-25T00:57:05.604Z,101398.95
2018-11-25T00:59:42.831Z,101395.20
2018-11-25T01:02:21.022Z,101399.48
2018-11-25T01:04:57.827Z,101400.25
2018-11-25T01:07:35.434Z,101398.50
2018-11-25T01:10:14.931Z,101401.97
2018-11-25T01:12:53.112Z,101408.03
2018-11-25T01:15:30.902Z,101414.66
2018-11-25T01:18:08.556Z,101407.33
2018-11-25T01:20:46.177Z,101410.80
2018-11-25T01:23:23.578Z,101411.29
2018-11-25T01:25:54.410Z,101407.05
2018-11-25T01:28:23.823Z,101415.77
2018-11-25T01:30:53.167Z,101410.58
2018-11-25T01:33:22.525Z,101408.86
2018-11-25T01:35:51.865Z,101402.89
2018-11-25T01:38:21.293Z,101405.14
2018-11-25T01:40:50.596Z,101407.80
2018-11-25T01:43:19.931Z,101394.41
2018-11-25T01:45:49.284Z,101404.36
2018-11-25T01:48:18.691Z,101401.41
2018-11-25T01:50:47.998Z,101402.80
2018-11-25T01:53:17.411Z,101402.87
2018-11-25T01:55:46.772Z,101395.09
2018-11-25T01:58:16.094Z,101403.81
2018-11-25T02:00:45.443Z,101400.73
2018-11-25T02:03:14.803Z,101403.33
2018-11-25T02:05:44.127Z,101408.12
2018-11-25T02:08:13.439Z,101407.22
2018-11-25T02:10:42.776Z,101402.94
2018-11-25T02:13:12.143Z,101407.28
2018-11-25T02:15:41.515Z,101408.58
2018-11-25T02:18:10.896Z,101400.86
2018-11-25T02:20:40.551Z,101403.45
2018-11-25T02:23:09.853Z,101403.03
2018-11-25T02:25:39.224Z,101398.20
2018-11-25T02:28:08.576Z,101399.14
2018-11-25T02:30:37.959Z,101397.13
2018-11-25T02:33:07.362Z,101395.41
2018-11-25T02:35:36.730Z,101394.56
2018-11-25T02:38:06.460Z,101389.80
2018-11-25T02:40:35.798Z,101385.09
2018-11-25T02:43:06.590Z,101388.98
2018-11-25T02:45:35.897Z,101385.55
2018-11-25T02:48:06.170Z,101388.66
2018-11-25T02:50:36.598Z,101383.44
2018-11-25T02:53:07.937Z,101383.89
2018-11-25T02:55:37.271Z,101380.84
2018-11-25T02:58:06.830Z,101383.05
2018-11-25T03:00:36.186Z,101382.23
2018-11-25T03:03:06.549Z,101382.75
2018-11-25T03:05:35.959Z,101383.63
2018-11-25T03:08:05.953Z,101380.36
2018-11-25T03:10:35.298Z,101386.19
2018-11-25T03:13:04.665Z,101375.81
2018-11-25T03:15:34.008Z,101376.69
2018-11-25T03:18:03.329Z,101374.55
2018-11-25T03:20:32.667Z,101374.16
2018-11-25T03:23:02.220Z,101381.52
2018-11-25T03:25:31.788Z,101373.24
2018-11-25T03:28:01.509Z,101371.07
2018-11-25T03:30:31.021Z,101373.24
2018-11-25T03:33:00.431Z,101376.27
2018-11-25T03:35:29.770Z,101373.60
2018-11-25T03:37:59.095Z,101368.41
2018-11-25T03:40:28.401Z,101369.71
2018-11-25T03:42:58.075Z,101373.16
2018-11-25T03:45:27.702Z,101367.95
2018-11-25T03:47:57.335Z,101373.16
2018-11-25T03:50:26.677Z,101374.03
2018-11-25T03:52:56.031Z,101372.30
2018-11-25T03:55:25.332Z,101365.78
2018-11-25T03:57:54.779Z,101370.46
2018-11-25T04:00:24.165Z,101365.14
2018-11-25T04:02:54.733Z,101367.58
2018-11-25T04:05:24.077Z,101370.08
2018-11-25T04:07:53.435Z,101365.60
2018-11-25T04:10:22.815Z,101370.27
2018-11-25T04:12:52.295Z,101368.03
2018-11-25T04:15:21.743Z,101374.62
2018-11-25T04:17:51.095Z,101380.33
2018-11-25T04:20:24.254Z,101386.00
2018-11-25T04:23:00.440Z,101375.04
2018-11-25T04:27:54.918Z,101375.36
2018-11-25T04:30:24.304Z,101377.08
2018-11-25T04:32:53.602Z,101379.74
2018-11-25T04:35:23.277Z,101382.79
2018-11-25T04:37:52.683Z,101383.66
2018-11-25T04:40:22.718Z,101382.37
2018-11-25T04:42:52.193Z,101384.19
2018-11-25T04:45:21.533Z,101380.78
2018-11-25T04:47:50.869Z,101388.14
2018-11-25T04:50:21.979Z,101387.69
2018-11-25T04:52:51.331Z,101382.50
2018-11-25T04:55:20.676Z,101382.08
2018-11-25T04:57:50.654Z,101390.73
2018-11-25T05:00:20.349Z,101378.12
2018-11-25T05:02:50.624Z,101381.59
2018-11-25T05:05:20.183Z,101380.72
2018-11-25T05:07:49.509Z,101385.13
2018-11-25T05:10:19.526Z,101376.95
2018-11-25T05:12:48.933Z,101376.52
2018-11-25T05:15:21.576Z,101374.81
2018-11-25T05:17:51.079Z,101383.89
2018-11-25T05:20:21.121Z,101379.94
2018-11-25T05:22:50.513Z,101388.20
2018-11-25T05:25:20.534Z,101390.31
2018-11-25T05:27:49.849Z,101385.97
2018-11-25T05:30:20.407Z,101388.05
2018-11-25T05:32:49.752Z,101388.98
2018-11-25T05:35:21.493Z,101385.55
2018-11-25T05:37:50.826Z,101384.67
2018-11-25T05:42:53.155Z,101379.16
2018-11-25T05:45:22.874Z,101377.41
2018-11-25T05:47:52.372Z,101387.78
2018-11-25T05:50:22.595Z,101386.94
2018-11-25T05:55:21.412Z,101392.69
2018-11-25T05:57:50.906Z,101386.13
2018-11-25T06:00:25.678Z,101380.45
2018-11-25T06:02:55.287Z,101384.19
2018-11-25T06:05:24.955Z,101387.17
2018-11-25T06:07:54.503Z,101382.27
2018-11-25T06:10:24.474Z,101381.69
2018-11-25T06:12:54.222Z,101383.77
2018-11-25T06:15:23.820Z,101389.80
2018-11-25T06:17:54.322Z,101392.39
2018-11-25T06:20:23.923Z,101391.97
2018-11-25T06:22:53.472Z,101396.03
2018-11-25T06:25:23.455Z,101395.25
2018-11-25T06:27:53.030Z,101392.66
2018-11-25T06:30:22.669Z,101393.23
2018-11-25T06:32:52.163Z,101395.34
2018-11-25T06:35:38.241Z,101398.52
2018-11-25T06:38:07.762Z,101399.89
2018-11-25T06:40:37.361Z,101399.47
2018-11-25T06:43:07.534Z,101407.70
2018-11-25T06:45:37.227Z,101412.89
2018-11-25T06:48:07.516Z,101412.08
2018-11-25T06:50:37.033Z,101420.81
2018-11-25T06:53:06.635Z,101419.52
2018-11-25T06:55:36.219Z,101416.08
2018-11-25T06:58:06.374Z,101415.27
2018-11-25T07:00:35.882Z,101414.91
2018-11-25T07:03:06.706Z,101416.30
2018-11-25T07:05:36.223Z,101413.34
2018-11-25T07:08:06.836Z,101416.00
2018-11-25T07:10:36.320Z,101420.64
2018-11-25T07:13:06.821Z,101415.42
2018-11-25T07:15:36.289Z,101421.66
2018-11-25T07:18:06.186Z,101426.91
2018-11-25T07:20:35.701Z,101424.34
2018-11-25T07:23:06.330Z,101430.54
2018-11-25T07:25:35.909Z,101434.89
2018-11-25T07:28:17.980Z,101432.30
2018-11-25T07:30:36.170Z,101426.22
2018-11-25T07:33:06.472Z,101425.86
2018-11-25T07:35:35.977Z,101432.42
2018-11-25T07:38:06.944Z,101434.17
2018-11-25T07:40:36.489Z,101436.77
2018-11-25T07:43:06.367Z,101439.85
2018-11-25T07:45:35.819Z,101441.60
2018-11-25T07:48:06.542Z,101439.49
2018-11-25T07:50:36.122Z,101444.69
2018-11-25T07:53:06.467Z,101449.46
2018-11-25T07:55:37.263Z,101449.46
2018-11-25T07:58:06.987Z,101449.10
2018-11-25T08:00:36.568Z,101448.31
2018-11-25T08:03:06.295Z,101454.45
2018-11-25T08:05:35.836Z,101448.05
2018-11-25T08:08:05.439Z,101446.45
2018-11-25T08:10:34.954Z,101439.60
2018-11-25T08:13:04.488Z,101448.73
2018-11-25T08:15:34.067Z,101450.61
2018-11-25T08:18:03.619Z,101429.87
2018-11-25T08:20:33.171Z,101455.17
2018-11-25T08:23:02.634Z,101449.19
2018-11-25T08:25:32.251Z,101457.47
2018-11-25T08:28:01.895Z,101459.28
2018-11-25T08:30:31.496Z,101461.95
2018-11-25T08:33:00.905Z,101459.38
2018-11-25T08:35:30.719Z,101455.11
2018-11-25T08:38:00.147Z,101451.22
2018-11-25T08:40:32.714Z,101460.37
2018-11-25T08:43:08.413Z,101455.69
2018-11-25T08:45:40.143Z,101458.80
2018-11-25T08:48:12.289Z,101456.72
2018-11-25T08:50:44.651Z,101456.84
2018-11-25T08:53:17.298Z,101461.31
2018-11-25T08:55:46.821Z,101463.06
2018-11-25T08:58:19.199Z,101464.00
2018-11-25T09:00:49.316Z,101461.84
2018-11-25T09:03:19.604Z,101460.67
2018-11-25T09:05:49.204Z,101465.08
2018-11-25T09:08:18.699Z,101461.24
2018-11-25T09:10:49.246Z,101465.53
2018-11-25T09:13:17.480Z,101469.12
2018-11-25T09:15:48.032Z,101464.87
2018-11-25T09:18:17.372Z,101458.81
2018-11-25T09:20:46.716Z,101456.34
2018-11-25T09:23:16.069Z,101462.05
2018-11-25T09:25:45.457Z,101460.69
2018-11-25T09:28:14.800Z,101458.57
2018-11-25T09:30:44.152Z,101460.77
2018-11-25T09:33:13.497Z,101458.17
2018-11-25T09:35:42.825Z,101461.69
2018-11-25T09:38:12.162Z,101462.65
2018-11-25T09:40:41.512Z,101465.70
2018-11-25T09:43:10.883Z,101463.61
2018-11-25T09:45:40.233Z,101468.08
2018-11-25T09:48:11.285Z,101467.14
2018-11-25T09:50:40.647Z,101463.24
2018-11-25T09:53:10.099Z,101461.07
2018-11-25T09:55:39.796Z,101469.75
2018-11-25T09:58:09.165Z,101466.41
2018-11-25T10:00:38.616Z,101469.02
2018-11-25T10:03:08.796Z,101467.29
2018-11-25T10:05:38.368Z,101482.53
2018-11-25T10:08:07.832Z,101472.19
2018-11-25T10:10:44.029Z,101472.58
2018-11-25T10:13:13.484Z,101466.12
2018-11-25T10:15:42.905Z,101470.97
2018-11-25T10:18:12.304Z,101472.35
2018-11-25T10:20:41.650Z,101481.00
2018-11-25T10:23:12.057Z,101475.89
2018-11-25T10:25:41.777Z,101478.63
2018-11-25T10:28:11.503Z,101480.92
2018-11-25T10:30:40.989Z,101479.28
2018-11-25T10:33:10.711Z,101476.36
2018-11-25T10:35:40.062Z,101473.77
2018-11-25T10:38:09.407Z,101477.23
2018-11-25T10:40:38.731Z,101483.80
2018-11-25T10:43:08.154Z,101479.90
2018-11-25T10:45:37.565Z,101474.64
2018-11-25T10:49:09.658Z,101474.69
2018-11-25T10:51:39.050Z,101474.87
2018-11-25T10:54:08.432Z,101471.89
2018-11-25T10:56:37.763Z,101475.06
2018-11-25T10:59:07.181Z,101473.90
2018-11-25T11:01:54.625Z,101471.36
2018-11-25T11:06:37.035Z,101478.67
2018-11-25T11:09:07.985Z,101473.17
2018-11-25T11:11:37.325Z,101481.20
2018-11-25T11:14:08.855Z,101478.73
2018-11-25T11:16:38.182Z,101480.55
2018-11-25T11:19:07.502Z,101474.97
2018-11-25T11:21:36.827Z,101478.13
2018-11-25T11:24:06.357Z,101486.88
2018-11-25T11:26:35.829Z,101488.12
2018-11-25T11:29:06.755Z,101482.48
2018-11-25T11:31:36.091Z,101476.09
2018-11-25T11:34:06.433Z,101482.68
2018-11-25T11:36:37.830Z,101482.31
2018-11-25T11:39:10.228Z,101482.75
2018-11-25T11:41:39.564Z,101474.50
2018-11-25T11:44:08.881Z,101467.14
2018-11-25T11:46:38.208Z,101466.77
2018-11-25T11:49:07.559Z,101464.64
2018-11-25T11:51:36.900Z,101459.86
2018-11-25T11:54:06.592Z,101461.61
2018-11-25T11:56:40.219Z,101457.34
2018-11-25T11:59:06.657Z,101450.48
2018-11-25T12:01:35.983Z,101450.59
2018-11-25T12:04:06.778Z,101446.76
2018-11-25T12:06:36.100Z,101448.94
2018-11-25T12:09:10.316Z,101447.69
2018-11-25T12:11:39.650Z,101452.52
2018-11-25T12:14:09.039Z,101437.83
2018-11-25T12:16:38.420Z,101440.06
2018-11-25T12:19:07.828Z,101440.56
2018-11-25T12:21:37.159Z,101440.23
2018-11-25T12:24:06.652Z,101444.16
2018-11-25T12:26:37.890Z,101437.66
2018-11-25T12:29:07.282Z,101416.49
2018-11-25T12:31:38.981Z,101440.37
2018-11-25T12:34:08.377Z,101439.94
2018-11-25T12:36:37.718Z,101437.20
2018-11-25T12:39:09.812Z,101432.06
2018-11-25T12:41:39.315Z,101434.22
2018-11-25T12:44:08.676Z,101435.09
2018-11-25T12:46:37.982Z,101429.03
2018-11-25T12:49:09.470Z,101425.12
2018-11-25T12:51:39.031Z,101418.62
2018-11-25T12:54:08.449Z,101423.02
2018-11-25T12:56:37.817Z,101418.30
2018-11-25T12:59:08.248Z,101412.77
2018-11-25T13:01:37.752Z,101413.28
2018-11-25T13:04:07.176Z,101413.76
2018-11-25T13:06:39.146Z,101411.59
2018-11-25T13:09:09.153Z,101414.58
2018-11-25T13:11:38.583Z,101413.77
2018-11-25T13:14:08.299Z,101406.87
2018-11-25T13:16:37.995Z,101408.23
2018-11-25T13:19:07.700Z,101400.42
2018-11-25T13:21:37.414Z,101407.43
2018-11-25T13:24:12.922Z,101395.64
2018-11-25T13:26:42.590Z,101400.47
2018-11-25T13:29:12.271Z,101396.09
2018-11-25T13:31:42.023Z,101397.77
2018-11-25T13:34:11.587Z,101396.94
2018-11-25T13:36:41.106Z,101396.46
2018-11-25T13:39:11.915Z,101397.81
2018-11-25T13:41:44.701Z,101393.91
2018-11-25T13:44:14.323Z,101392.61
2018-11-25T13:46:43.829Z,101397.38
2018-11-25T13:49:14.028Z,101392.98
2018-11-25T13:51:43.655Z,101402.27
2018-11-25T13:54:13.363Z,101398.43
2018-11-25T13:56:43.122Z,101394.14
2018-11-25T13:59:15.987Z,101403.36
2018-11-25T14:01:45.579Z,101399.02
2018-11-25T14:04:15.364Z,101408.97
2018-11-25T14:06:44.974Z,101409.87
2018-11-25T14:09:16.431Z,101405.05
2018-11-25T14:11:45.995Z,101396.32
2018-11-25T14:14:15.938Z,101394.62
2018-11-25T14:16:46.395Z,101397.17
2018-11-25T14:19:15.971Z,101401.89
2018-11-25T14:21:45.502Z,101403.09
2018-11-25T14:24:15.503Z,101402.10
2018-11-25T14:26:55.045Z,101405.58
2018-11-25T14:29:24.836Z,101411.17
2018-11-25T14:31:54.374Z,101414.20
2018-11-25T14:34:24.588Z,101415.88
2018-11-25T14:36:54.651Z,101413.20
2018-11-25T14:39:24.981Z,101408.38
2018-11-25T14:41:54.884Z,101409.13
2018-11-25T14:44:24.462Z,101411.28
2018-11-25T14:46:54.102Z,101408.58
2018-11-25T14:49:23.813Z,101405.90
2018-11-25T14:51:53.457Z,101411.59
2018-11-25T14:54:23.696Z,101409.38
2018-11-25T14:56:53.245Z,101405.90
2018-11-25T14:59:24.039Z,101404.97
2018-11-25T15:01:53.644Z,101402.30
2018-11-25T15:04:24.600Z,101407.56
2018-11-25T15:06:54.239Z,101404.05
2018-11-25T15:09:24.099Z,101405.34
2018-11-25T15:11:54.007Z,101406.66
2018-11-25T15:14:23.843Z,101412.72
2018-11-25T15:16:54.043Z,101413.53
2018-11-25T15:19:23.761Z,101420.52
2018-11-25T15:21:53.283Z,101423.58
2018-11-25T15:24:23.937Z,101421.02
2018-11-25T15:26:53.711Z,101422.27
2018-11-25T15:29:23.304Z,101423.20
2018-11-25T15:31:54.851Z,101420.15
2018-11-25T15:34:26.239Z,101420.58
2018-11-25T15:36:55.832Z,101417.55
2018-11-25T15:39:25.378Z,101414.46
2018-11-25T15:41:54.892Z,101415.39
2018-11-25T15:44:25.062Z,101418.47
2018-11-25T15:46:54.565Z,101414.52
2018-11-25T15:49:24.044Z,101411.04
2018-11-25T15:51:53.648Z,101411.47
2018-11-25T15:54:23.210Z,101410.11
2018-11-25T15:56:52.719Z,101408.33
2018-11-25T15:59:24.948Z,101407.94
2018-11-25T16:01:57.279Z,101410.91
2018-11-25T16:04:26.815Z,101412.61
2018-11-25T16:06:58.903Z,101406.53
2018-11-25T16:09:31.183Z,101409.56
2018-11-25T16:12:02.927Z,101410.41
2018-11-25T16:14:39.691Z,101409.11
2018-11-25T16:17:14.150Z,101413.84
2018-11-25T16:19:47.631Z,101415.62
2018-11-25T16:22:33.180Z,101411.73
2018-11-25T16:25:09.464Z,101408.58
2018-11-25T16:27:38.843Z,101412.03
2018-11-25T16:30:12.743Z,101420.83
2018-11-25T16:32:42.114Z,101421.20
2018-11-25T16:35:12.101Z,101422.02
2018-11-25T16:37:42.700Z,101425.05
2018-11-25T16:40:15.946Z,101426.78
2018-11-25T16:42:45.413Z,101424.18
2018-11-25T16:45:16.489Z,101432.44
2018-11-25T16:47:45.920Z,101402.06
2018-11-25T16:50:25.038Z,101424.18
2018-11-25T16:52:47.248Z,101430.20
2018-11-25T16:55:16.942Z,101431.88
2018-11-25T16:57:46.551Z,101425.73
2018-11-25T17:00:19.815Z,101428.91
2018-11-25T17:02:49.380Z,101424.61
2018-11-25T17:05:24.111Z,101431.12
2018-11-25T17:08:04.058Z,101420.27
2018-11-25T17:10:35.325Z,101438.92
2018-11-25T17:13:04.978Z,101438.95
2018-11-25T17:15:34.486Z,101428.09
2018-11-25T17:18:03.984Z,101440.36
2018-11-25T17:23:15.831Z,101425.18
2018-11-25T17:25:45.728Z,101435.92
2018-11-25T17:28:15.462Z,101434.11
2018-11-25T17:30:45.108Z,101431.06
2018-11-25T17:33:14.677Z,101418.84
2018-11-25T17:35:44.143Z,101417.06
2018-11-25T17:38:13.788Z,101422.64
2018-11-25T17:40:43.288Z,101414.31
2018-11-25T17:43:18.148Z,101419.84
2018-11-25T17:45:47.495Z,101415.38
2018-11-25T17:48:16.889Z,101424.97
2018-11-25T17:50:46.241Z,101415.38
2018-11-25T17:53:20.586Z,101416.25
2018-11-25T17:55:44.981Z,101411.95
2018-11-25T17:58:14.339Z,101411.95
2018-11-25T18:00:54.160Z,101400.61
2018-11-25T18:03:27.423Z,101407.99
2018-11-25T18:05:56.743Z,101414.07
2018-11-25T18:08:29.575Z,101416.67
2018-11-25T18:10:59.778Z,101415.75
2018-11-25T18:13:32.720Z,101418.77
2018-11-25T18:16:04.213Z,101414.81
2018-11-25T18:18:45.863Z,101423.92
2018-11-25T18:21:20.265Z,101420.45
2018-11-25T18:23:49.784Z,101423.92
2018-11-25T18:26:19.432Z,101423.13
2018-11-25T18:28:48.973Z,101430.56
2018-11-25T18:31:19.124Z,101426.72
2018-11-25T18:33:48.715Z,101432.34
2018-11-25T18:36:19.127Z,101436.75
2018-11-25T18:38:48.679Z,101443.34
2018-11-25T18:41:20.011Z,101442.03
2018-11-25T18:43:50.626Z,101439.48
2018-11-25T18:46:20.113Z,101439.06
2018-11-25T18:48:50.952Z,101439.55
2018-11-25T18:51:20.575Z,101444.38
2018-11-25T18:53:50.619Z,101435.27
2018-11-25T18:56:20.438Z,101438.38
2018-11-25T18:58:50.594Z,101440.97
2018-11-25T19:01:30.965Z,101447.50
2018-11-25T19:04:00.589Z,101451.41
2018-11-25T19:06:30.154Z,101450.16
2018-11-25T19:08:59.787Z,101447.50
2018-11-25T19:11:29.357Z,101446.69
2018-11-25T19:13:58.968Z,101438.88
2018-11-25T19:16:28.511Z,101444.95
2018-11-25T19:18:58.046Z,101440.63
2018-11-25T19:21:27.550Z,101429.77
2018-11-25T19:23:57.262Z,101435.39
2018-11-25T19:26:26.924Z,101437.63
2018-11-25T19:28:56.444Z,101430.69
2018-11-25T19:31:25.980Z,101431.14
2018-11-25T19:33:55.686Z,101417.19
2018-11-25T19:36:27.038Z,101426.86
2018-11-25T19:38:56.642Z,101421.65
2018-11-25T19:41:26.139Z,101421.22
2018-11-25T19:43:55.639Z,101423.44
2018-11-25T19:46:25.150Z,101427.78
2018-11-25T19:48:54.749Z,101418.59
2018-11-25T19:51:24.271Z,101426.86
2018-11-25T19:53:53.872Z,101437.34
2018-11-25T19:56:23.421Z,101432.63
2018-11-25T19:58:53.063Z,101420.95
2018-11-25T20:01:22.700Z,101420.05
2018-11-25T20:03:52.381Z,101426.55
2018-11-25T20:06:24.367Z,101430.46
2018-11-25T20:08:53.975Z,101431.81
2018-11-25T20:11:23.599Z,101423.95
2018-11-25T20:13:53.187Z,101427.97
2018-11-25T20:16:27.912Z,101427.97
2018-11-25T20:18:57.526Z,101433.17
2018-11-25T20:21:32.356Z,101438.83
2018-11-25T20:24:01.968Z,101434.09
2018-11-25T20:26:31.653Z,101442.84
2018-11-25T20:29:01.388Z,101448.00
2018-11-25T20:31:31.075Z,101444.59
2018-11-25T20:34:00.805Z,101445.89
2018-11-25T20:36:30.419Z,101447.63
2018-11-25T20:39:05.055Z,101450.67
2018-11-25T20:41:34.950Z,101452.91
2018-11-25T20:44:04.641Z,101455.08
2018-11-25T20:46:39.464Z,101451.17
2018-11-25T20:49:08.984Z,101446.45
2018-11-25T20:51:43.824Z,101452.95
2018-11-25T20:54:13.368Z,101452.84
2018-11-25T20:56:43.125Z,101458.98
2018-11-25T20:59:12.762Z,101459.91
2018-11-25T21:01:43.312Z,101461.22
2018-11-25T21:04:12.887Z,101453.88
2018-11-25T21:06:43.144Z,101455.19
2018-11-25T21:09:12.710Z,101460.84
2018-11-25T21:11:42.203Z,101462.14
2018-11-25T21:14:11.763Z,101463.50
2018-11-25T21:16:41.414Z,101462.14
2018-11-25T21:19:10.946Z,101462.14
2018-11-25T21:21:40.632Z,101455.69
2018-11-25T21:24:10.191Z,101462.20
2018-11-25T21:26:39.749Z,101459.54
2018-11-25T21:29:09.262Z,101466.91
2018-11-25T21:31:38.962Z,101464.75
2018-11-25T21:34:08.474Z,101459.54
2018-11-25T21:36:38.055Z,101452.66
2018-11-25T21:39:10.867Z,101451.73
2018-11-25T21:41:40.562Z,101452.16
2018-11-25T21:44:11.340Z,101459.97
2018-11-25T21:46:45.409Z,101449.92
2018-11-25T21:49:15.003Z,101453.51
2018-11-25T21:51:44.811Z,101461.33
2018-11-25T21:54:14.434Z,101461.33
2018-11-25T21:56:43.947Z,101465.68
2018-11-25T21:59:13.503Z,101463.45
2018-11-25T22:01:43.066Z,101466.05
2018-11-25T22:04:12.592Z,101469.96
2018-11-25T22:06:42.170Z,101461.33
2018-11-25T22:09:11.714Z,101456.94
2018-11-25T22:11:41.225Z,101466.00
2018-11-25T22:14:10.789Z,101472.52
2018-11-25T22:16:40.401Z,101475.09
2018-11-25T22:19:09.898Z,101477.70
2018-11-25T22:21:39.238Z,101483.73
2018-11-25T22:24:08.813Z,101481.13
2018-11-25T22:26:38.461Z,101481.98
2018-11-25T22:29:08.105Z,101485.09
2018-11-25T22:31:37.728Z,101473.80
2018-11-25T22:34:07.562Z,101475.91
2018-11-25T22:36:37.342Z,101472.44
2018-11-25T22:39:10.180Z,101469.38
2018-11-25T22:41:39.643Z,101462.88
2018-11-25T22:44:09.314Z,101470.20
2018-11-25T22:46:38.866Z,101473.61
2018-11-25T22:49:08.360Z,101475.28
2018-11-25T22:51:37.915Z,101477.44
2018-11-25T22:54:07.542Z,101467.45
2018-11-25T22:56:36.843Z,101467.84
2018-11-25T22:59:06.645Z,101465.22
2018-11-25T23:01:35.954Z,101473.41
2018-11-25T23:04:23.478Z,101469.38
2018-11-25T23:07:02.168Z,101463.98
2018-11-25T23:09:31.487Z,101470.91
2018-11-25T23:12:00.850Z,101469.50
2018-11-25T23:14:30.165Z,101472.91
2018-11-25T23:16:59.517Z,101471.58
2018-11-25T23:19:28.902Z,101468.13
2018-11-25T23:21:58.227Z,101466.83
2018-11-25T23:24:27.570Z,101469.85
2018-11-25T23:26:56.900Z,101469.42
2018-11-25T23:29:26.242Z,101474.58
2018-11-25T23:31:55.578Z,101472.83
2018-11-25T23:34:24.927Z,101470.59
2018-11-25T23:36:54.275Z,101474.50
2018-11-25T23:39:23.602Z,101466.24
2018-11-25T23:41:53.453Z,101472.27
2018-11-25T23:44:22.832Z,101475.34
2018-11-25T23:46:52.159Z,101466.61
2018-11-25T23:49:21.478Z,101464.83
2018-11-25T23:51:50.841Z,101468.73
2018-11-25T23:54:20.207Z,101462.59
2018-11-25T23:56:49.567Z,101469.90
2018-11-25T23:59:18.935Z,101471.63
